createdAt,value
2018-12-14T00:01:39.725Z,27.73
2018-12-14T00:04:07.689Z,25.87
2018-12-14T00:06:35.642Z,26.60
2018-12-14T00:09:04.391Z,24.17
2018-12-14T00:11:32.346Z,22.00
2018-12-14T00:14:00.311Z,24.27
2018-12-14T00:16:28.275Z,26.77
2018-12-14T00:18:56.284Z,27.47
2018-12-14T00:21:24.272Z,23.93
2018-12-14T00:23:52.253Z,25.97
2018-12-14T00:26:20.197Z,25.83
2018-12-14T00:28:48.123Z,24.00
2018-12-14T00:31:16.039Z,24.13
2018-12-14T00:33:43.973Z,24.73
2018-12-14T00:36:11.928Z,25.27
2018-12-14T00:38:39.921Z,24.20
2018-12-14T00:41:07.823Z,27.17
2018-12-14T00:43:35.763Z,26.37
2018-12-14T00:46:03.715Z,24.97
2018-12-14T00:48:31.660Z,24.87
2018-12-14T00:50:59.612Z,25.07
2018-12-14T00:53:27.563Z,26.77
2018-12-14T00:55:55.487Z,23.70
2018-12-14T00:58:23.416Z,24.37
2018-12-14T01:00:51.352Z,24.17
2018-12-14T01:03:19.292Z,24.93
2018-12-14T01:05:47.263Z,24.17
2018-12-14T01:08:15.185Z,22.57
2018-12-14T01:10:43.118Z,21.70
2018-12-14T01:13:11.651Z,19.57
2018-12-14T01:15:39.584Z,20.47
2018-12-14T01:18:07.516Z,20.47
2018-12-14T01:20:35.452Z,20.53
2018-12-14T01:23:03.417Z,20.03
2018-12-14T01:25:31.360Z,20.23
2018-12-14T01:27:59.277Z,20.37
2018-12-14T01:30:27.203Z,19.93
2018-12-14T01:32:55.133Z,21.10
2018-12-14T01:35:23.060Z,20.00
2018-12-14T01:37:51.039Z,18.13
2018-12-14T01:40:18.987Z,19.57
2018-12-14T01:42:46.901Z,19.97
2018-12-14T01:45:14.873Z,19.60
2018-12-14T01:47:42.937Z,19.10
2018-12-14T01:50:11.144Z,19.30
2018-12-14T01:52:39.340Z,18.23
2018-12-14T01:55:07.408Z,19.67
2018-12-14T01:57:35.685Z,19.30
2018-12-14T02:00:03.843Z,18.00
2018-12-14T02:02:31.785Z,18.70
2018-12-14T02:04:59.737Z,19.30
2018-12-14T02:07:27.671Z,18.30
2018-12-14T02:09:55.596Z,18.87
2018-12-14T02:12:23.685Z,18.57
2018-12-14T02:14:51.591Z,20.13
2018-12-14T02:17:19.530Z,19.33
2018-12-14T02:19:47.440Z,19.77
2018-12-14T02:22:15.372Z,21.43
2018-12-14T02:24:43.645Z,20.63
2018-12-14T02:27:11.678Z,21.80
2018-12-14T02:29:39.624Z,20.90
2018-12-14T02:32:07.832Z,18.67
2018-12-14T02:34:35.927Z,18.13
2018-12-14T02:37:03.857Z,17.93
2018-12-14T02:39:31.781Z,18.80
2018-12-14T02:41:59.727Z,20.37
2018-12-14T02:44:27.679Z,20.13
2018-12-14T02:46:55.600Z,20.37
2018-12-14T02:49:23.524Z,19.90
2018-12-14T02:51:51.440Z,21.83
2018-12-14T02:54:19.393Z,20.10
2018-12-14T02:56:47.324Z,20.23
2018-12-14T02:59:15.920Z,20.23
2018-12-14T03:01:44.363Z,20.20
2018-12-14T03:04:12.296Z,21.40
2018-12-14T03:06:40.237Z,21.83
2018-12-14T03:09:08.232Z,21.57
2018-12-14T03:11:36.159Z,21.27
2018-12-14T03:14:04.073Z,20.37
2018-12-14T03:16:32.004Z,20.40
2018-12-14T03:18:59.956Z,21.17
2018-12-14T03:21:27.894Z,20.60
2018-12-14T03:23:55.871Z,20.27
2018-12-14T03:26:23.944Z,20.23
2018-12-14T03:28:51.965Z,20.13
2018-12-14T03:31:19.928Z,18.37
2018-12-14T03:33:48.009Z,19.80
2018-12-14T03:36:16.456Z,17.60
2018-12-14T03:38:44.385Z,16.73
2018-12-14T03:41:12.320Z,15.23
2018-12-14T03:43:40.293Z,15.73
2018-12-14T03:46:08.232Z,16.57
2018-12-14T03:48:36.158Z,14.30
2018-12-14T03:51:04.083Z,13.67
2018-12-14T03:53:32.051Z,12.83
2018-12-14T03:55:59.979Z,12.17
2018-12-14T03:58:27.941Z,11.87
2018-12-14T04:00:56.031Z,12.50
2018-12-14T04:03:23.967Z,12.03
2018-12-14T04:05:51.944Z,12.50
2018-12-14T04:08:20.284Z,12.60
2018-12-14T04:10:48.256Z,13.20
2018-12-14T04:13:16.180Z,11.90
2018-12-14T04:15:44.660Z,12.47
2018-12-14T04:18:12.713Z,11.80
2018-12-14T04:20:40.736Z,12.07
2018-12-14T04:23:08.688Z,11.80
2018-12-14T04:25:36.612Z,11.00
2018-12-14T04:28:04.630Z,10.93
2018-12-14T04:30:32.556Z,11.77
2018-12-14T04:33:00.511Z,11.20
2018-12-14T04:35:28.425Z,11.13
2018-12-14T04:37:56.337Z,10.80
2018-12-14T04:40:24.297Z,11.00
2018-12-14T04:42:52.261Z,12.07
2018-12-14T04:45:20.232Z,11.83
2018-12-14T04:47:48.164Z,11.93
2018-12-14T04:50:16.198Z,19.63
2018-12-14T04:52:44.147Z,12.77
2018-12-14T04:55:12.096Z,12.50
2018-12-14T04:57:40.028Z,11.77
2018-12-14T05:00:08.369Z,11.87
2018-12-14T05:02:36.286Z,12.20
2018-12-14T05:05:04.233Z,12.70
2018-12-14T05:07:32.150Z,13.13
2018-12-14T05:10:00.076Z,13.80
2018-12-14T05:12:27.983Z,12.43
2018-12-14T05:14:55.939Z,12.83
2018-12-14T05:17:24.037Z,13.40
2018-12-14T05:19:52.046Z,12.73
2018-12-14T05:22:19.988Z,12.80
2018-12-14T05:24:47.941Z,12.87
2018-12-14T05:27:16.036Z,12.07
2018-12-14T05:29:44.216Z,11.07
2018-12-14T05:32:12.155Z,12.83
2018-12-14T05:34:40.092Z,13.63
2018-12-14T05:37:08.051Z,13.43
2018-12-14T05:39:35.969Z,12.87
2018-12-14T05:42:03.912Z,11.13
2018-12-14T05:44:31.853Z,12.27
2018-12-14T05:46:59.767Z,12.33
2018-12-14T05:49:27.685Z,12.37
2018-12-14T05:51:55.696Z,11.83
2018-12-14T05:54:23.718Z,10.87
2018-12-14T05:56:51.719Z,10.93
2018-12-14T05:59:19.744Z,11.37
2018-12-14T06:01:47.676Z,13.20
2018-12-14T06:04:15.618Z,10.50
2018-12-14T06:06:43.725Z,11.70
2018-12-14T06:09:12.017Z,11.40
2018-12-14T06:11:40.024Z,12.03
2018-12-14T06:14:08.037Z,10.90
2018-12-14T06:16:35.996Z,12.10
2018-12-14T06:19:04.852Z,12.30
2018-12-14T06:21:32.788Z,11.40
2018-12-14T06:24:00.717Z,11.63
2018-12-14T06:26:28.640Z,12.30
2018-12-14T06:28:56.672Z,11.83
2018-12-14T06:31:24.610Z,12.80
2018-12-14T06:33:52.536Z,12.37
2018-12-14T06:36:20.520Z,11.73
2018-12-14T06:38:48.473Z,12.53
2018-12-14T06:41:16.409Z,13.27
2018-12-14T06:43:44.331Z,11.47
2018-12-14T06:46:12.269Z,12.83
2018-12-14T06:48:40.206Z,14.70
2018-12-14T06:51:08.502Z,13.93
2018-12-14T06:53:36.429Z,13.40
2018-12-14T06:56:04.355Z,14.57
2018-12-14T06:58:32.298Z,15.27
2018-12-14T07:01:01.065Z,18.15
2018-12-14T07:03:29.112Z,16.10
2018-12-14T07:05:57.037Z,18.40
2018-12-14T07:08:25.023Z,13.73
2018-12-14T07:10:53.021Z,16.70
2018-12-14T07:13:22.020Z,17.87
2018-12-14T07:15:50.117Z,15.17
2018-12-14T07:18:18.076Z,14.30
2018-12-14T07:20:46.175Z,15.10
2018-12-14T07:23:14.130Z,14.67
2018-12-14T07:25:42.136Z,14.30
2018-12-14T07:28:10.084Z,14.00
2018-12-14T07:30:38.037Z,18.52
2018-12-14T07:33:06.018Z,15.40
2018-12-14T07:35:33.982Z,15.03
2018-12-14T07:38:02.860Z,13.77
2018-12-14T07:40:30.988Z,14.70
2018-12-14T07:42:59.068Z,14.00
2018-12-14T07:45:27.210Z,13.67
2018-12-14T07:47:55.176Z,14.80
2018-12-14T07:50:23.148Z,12.17
2018-12-14T07:52:51.084Z,14.03
2018-12-14T07:55:19.052Z,13.43
2018-12-14T07:57:47.051Z,12.90
2018-12-14T08:00:15.004Z,12.70
2018-12-14T08:02:42.997Z,13.43
2018-12-14T08:05:10.971Z,12.57
2018-12-14T08:07:39.006Z,14.33
2018-12-14T08:10:07.560Z,13.03
2018-12-14T08:12:35.595Z,14.63
2018-12-14T08:15:04.268Z,12.30
2018-12-14T08:17:33.325Z,11.93
2018-12-14T08:20:01.314Z,11.97
2018-12-14T08:22:29.406Z,12.10
2018-12-14T08:24:57.440Z,9.53
2018-12-14T08:27:25.580Z,11.80
2018-12-14T08:29:53.619Z,11.43
2018-12-14T08:32:21.652Z,9.60
2018-12-14T08:34:51.200Z,11.37
2018-12-14T08:37:19.531Z,10.10
2018-12-14T08:39:47.538Z,10.23
2018-12-14T08:42:15.569Z,9.87
2018-12-14T08:44:43.589Z,10.03
2018-12-14T08:47:11.652Z,9.70
2018-12-14T08:49:39.676Z,10.90
2018-12-14T08:52:07.693Z,11.53
2018-12-14T08:54:35.767Z,9.73
2018-12-14T08:57:04.752Z,14.30
2018-12-14T08:59:33.729Z,9.63
2018-12-14T09:02:01.752Z,9.40
2018-12-14T09:04:29.850Z,11.30
2018-12-14T09:06:57.924Z,9.97
2018-12-14T09:09:25.989Z,11.00
2018-12-14T09:11:54.004Z,8.83
2018-12-14T09:14:22.074Z,10.27
2018-12-14T09:16:50.076Z,9.73
2018-12-14T09:19:18.105Z,9.03
2018-12-14T09:21:46.104Z,9.63
2018-12-14T09:24:14.152Z,10.43
2018-12-14T09:26:42.153Z,8.93
2018-12-14T09:29:10.310Z,10.17
2018-12-14T09:31:38.715Z,9.33
2018-12-14T09:34:06.727Z,8.63
2018-12-14T09:36:35.280Z,9.97
2018-12-14T09:39:04.718Z,9.93
2018-12-14T09:41:32.707Z,9.87
2018-12-14T09:44:00.680Z,8.30
2018-12-14T09:46:28.660Z,8.53
2018-12-14T09:48:56.680Z,9.30
2018-12-14T09:51:24.651Z,9.03
2018-12-14T09:53:52.613Z,9.37
2018-12-14T09:56:20.588Z,8.87
2018-12-14T09:58:48.610Z,8.53
2018-12-14T10:01:16.607Z,8.60
2018-12-14T10:03:44.809Z,7.33
2018-12-14T10:06:15.803Z,8.67
2018-12-14T10:08:43.081Z,7.60
2018-12-14T10:11:11.012Z,8.83
2018-12-14T10:13:39.049Z,7.57
2018-12-14T10:16:07.570Z,8.13
2018-12-14T10:18:35.569Z,8.50
2018-12-14T10:21:04.166Z,6.23
2018-12-14T10:23:32.096Z,5.90
2018-12-14T10:26:00.033Z,6.27
2018-12-14T10:28:28.018Z,6.70
2018-12-14T10:30:56.059Z,6.53
2018-12-14T10:33:24.012Z,6.10
2018-12-14T10:35:51.983Z,6.43
2018-12-14T10:38:19.985Z,6.57
2018-12-14T10:40:47.928Z,6.73
2018-12-14T10:43:15.861Z,7.07
2018-12-14T10:45:44.161Z,7.13
2018-12-14T10:48:12.129Z,6.93
2018-12-14T10:50:40.118Z,6.57
2018-12-14T10:53:12.528Z,6.37
2018-12-14T10:55:40.791Z,7.97
2018-12-14T10:58:08.885Z,7.85
2018-12-14T11:00:42.362Z,7.00
2018-12-14T11:03:10.305Z,6.67
2018-12-14T11:05:38.348Z,6.63
2018-12-14T11:08:06.313Z,6.00
2018-12-14T11:10:35.163Z,7.05
2018-12-14T11:13:03.417Z,6.50
2018-12-14T11:15:31.387Z,6.47
2018-12-14T11:17:59.364Z,7.50
2018-12-14T11:20:27.473Z,5.80
2018-12-14T11:22:55.430Z,6.73
2018-12-14T11:25:23.388Z,6.20
2018-12-14T11:27:51.363Z,6.20
2018-12-14T11:30:19.318Z,6.80
2018-12-14T11:32:47.283Z,7.10
2018-12-14T11:35:15.230Z,7.00
2018-12-14T11:37:43.188Z,7.90
2018-12-14T11:40:11.142Z,7.93
2018-12-14T11:42:39.124Z,6.67
2018-12-14T11:45:08.339Z,7.10
2018-12-14T11:47:36.742Z,7.03
2018-12-14T11:50:06.467Z,6.53
2018-12-14T11:52:35.437Z,6.77
2018-12-14T11:55:04.120Z,6.57
2018-12-14T11:57:32.122Z,6.47
2018-12-14T12:00:00.055Z,6.20
2018-12-14T12:02:28.044Z,5.67
2018-12-14T12:04:56.020Z,6.47
2018-12-14T12:07:23.962Z,5.43
2018-12-14T12:09:51.885Z,5.53
2018-12-14T12:12:19.831Z,5.57
2018-12-14T12:14:47.752Z,5.80
2018-12-14T12:17:15.709Z,5.77
2018-12-14T12:19:43.644Z,4.23
2018-12-14T12:22:11.651Z,5.80
2018-12-14T12:24:39.592Z,6.00
2018-12-14T12:27:07.529Z,5.83
2018-12-14T12:29:35.868Z,5.47
2018-12-14T12:32:04.706Z,5.73
2018-12-14T12:34:33.156Z,4.73
2018-12-14T12:37:01.113Z,5.37
2018-12-14T12:39:29.052Z,4.70
2018-12-14T12:41:57.012Z,4.63
2018-12-14T12:44:24.976Z,4.50
2018-12-14T12:46:52.949Z,5.17
2018-12-14T12:49:20.895Z,4.70
2018-12-14T12:51:48.885Z,4.10
2018-12-14T12:54:16.864Z,4.40
2018-12-14T12:56:44.994Z,4.07
2018-12-14T12:59:12.939Z,4.23
2018-12-14T13:01:40.909Z,4.03
2018-12-14T13:04:08.884Z,4.73
2018-12-14T13:06:36.832Z,3.93
2018-12-14T13:09:05.478Z,4.27
2018-12-14T13:11:34.432Z,4.27
2018-12-14T13:14:02.638Z,3.90
2018-12-14T13:16:30.598Z,4.30
2018-12-14T13:18:58.575Z,4.37
2018-12-14T13:21:26.998Z,5.47
2018-12-14T13:23:54.936Z,5.30
2018-12-14T13:26:22.879Z,5.50
2018-12-14T13:28:51.808Z,4.53
2018-12-14T13:31:19.900Z,5.73
2018-12-14T13:33:47.848Z,5.50
2018-12-14T13:36:15.816Z,5.17
2018-12-14T13:38:43.780Z,5.37
2018-12-14T13:41:11.788Z,5.53
2018-12-14T13:43:39.923Z,5.33
2018-12-14T13:46:07.891Z,5.47
2018-12-14T13:48:35.905Z,13.27
2018-12-14T13:51:04.285Z,15.27
2018-12-14T13:53:32.239Z,18.40
2018-12-14T13:56:00.181Z,16.87
2018-12-14T13:58:28.176Z,14.10
2018-12-14T14:00:56.150Z,20.23
2018-12-14T14:03:24.101Z,25.27
2018-12-14T14:05:52.070Z,35.13
2018-12-14T14:08:20.133Z,21.40
2018-12-14T14:10:48.074Z,12.20
2018-12-14T14:13:16.168Z,7.73
2018-12-14T14:15:50.455Z,6.97
2018-12-14T14:18:14.144Z,6.20
2018-12-14T14:20:42.111Z,6.70
2018-12-14T14:23:10.111Z,5.87
2018-12-14T14:25:38.337Z,5.10
2018-12-14T14:28:06.297Z,4.80
2018-12-14T14:30:35.225Z,5.30
2018-12-14T14:33:04.015Z,5.27
2018-12-14T14:35:31.974Z,5.27
2018-12-14T14:37:59.909Z,4.80
2018-12-14T14:40:27.860Z,5.73
2018-12-14T14:42:55.892Z,5.67
2018-12-14T14:45:23.887Z,5.23
2018-12-14T14:47:51.856Z,4.70
2018-12-14T14:50:19.794Z,5.80
2018-12-14T14:52:47.836Z,5.13
2018-12-14T14:55:15.780Z,5.27
2018-12-14T14:57:43.988Z,5.00
2018-12-14T15:00:11.960Z,5.77
2018-12-14T15:02:39.952Z,5.17
2018-12-14T15:05:07.899Z,5.10
2018-12-14T15:07:35.851Z,5.00
2018-12-14T15:10:04.488Z,5.83
2018-12-14T15:12:33.176Z,5.73
2018-12-14T15:15:06.550Z,5.33
2018-12-14T15:17:31.364Z,5.50
2018-12-14T15:19:59.336Z,5.53
2018-12-14T15:22:27.288Z,6.07
2018-12-14T15:24:55.230Z,5.27
2018-12-14T15:27:23.192Z,5.40
2018-12-14T15:29:51.399Z,5.30
2018-12-14T15:32:19.616Z,5.77
2018-12-14T15:34:47.572Z,5.50
2018-12-14T15:37:15.796Z,5.20
2018-12-14T15:39:43.791Z,5.50
2018-12-14T15:42:12.169Z,5.60
2018-12-14T15:44:40.612Z,5.93
2018-12-14T15:47:08.667Z,6.27
2018-12-14T15:49:36.664Z,6.67
2018-12-14T15:52:04.699Z,7.20
2018-12-14T15:54:33.081Z,6.70
2018-12-14T15:57:01.135Z,8.28
2018-12-14T15:59:43.805Z,7.87
2018-12-14T16:02:11.762Z,7.00
2018-12-14T16:04:39.708Z,6.90
2018-12-14T16:07:07.652Z,6.73
2018-12-14T16:09:35.628Z,7.40
2018-12-14T16:12:04.345Z,8.00
2018-12-14T16:14:34.473Z,7.33
2018-12-14T16:17:02.640Z,7.63
2018-12-14T16:19:30.696Z,7.77
2018-12-14T16:21:59.025Z,9.33
2018-12-14T16:24:27.108Z,6.90
2018-12-14T16:26:55.328Z,8.23
2018-12-14T16:29:23.442Z,7.57
2018-12-14T16:31:51.563Z,13.43
2018-12-14T16:34:19.532Z,10.00
2018-12-14T16:36:47.528Z,8.50
2018-12-14T16:39:15.804Z,9.30
2018-12-14T16:41:43.797Z,9.40
2018-12-14T16:44:11.732Z,9.30
2018-12-14T16:46:39.714Z,9.67
2018-12-14T16:49:07.664Z,9.50
2018-12-14T16:51:35.649Z,9.50
2018-12-14T16:54:05.416Z,8.27
2018-12-14T16:56:33.409Z,9.87
2018-12-14T16:59:01.561Z,11.00
2018-12-14T17:01:29.704Z,11.73
2018-12-14T17:03:57.836Z,8.80
2018-12-14T17:06:26.150Z,9.40
2018-12-14T17:08:54.677Z,8.70
2018-12-14T17:11:23.081Z,10.57
2018-12-14T17:13:51.144Z,10.20
2018-12-14T17:16:19.153Z,11.50
2018-12-14T17:18:47.212Z,13.17
2018-12-14T17:21:15.792Z,13.03
2018-12-14T17:23:43.843Z,11.20
2018-12-14T17:26:12.709Z,11.53
2018-12-14T17:28:40.998Z,11.37
2018-12-14T17:31:09.236Z,10.80
2018-12-14T17:33:37.257Z,10.23
2018-12-14T17:36:05.332Z,11.40
2018-12-14T17:38:33.911Z,11.20
2018-12-14T17:41:02.007Z,11.23
2018-12-14T17:43:30.074Z,10.40
2018-12-14T17:45:58.216Z,11.87
2018-12-14T17:48:26.208Z,11.03
2018-12-14T17:51:08.938Z,11.17
2018-12-14T17:53:37.000Z,11.63
2018-12-14T17:56:06.209Z,11.63
2018-12-14T18:01:17.405Z,16.55
2018-12-14T18:03:45.407Z,12.63
2018-12-14T18:06:13.412Z,12.30
2018-12-14T18:08:42.374Z,12.70
2018-12-14T18:11:10.513Z,14.53
2018-12-14T18:13:38.548Z,14.73
2018-12-14T18:16:06.748Z,14.13
2018-12-14T18:18:36.405Z,14.17
2018-12-14T18:21:05.055Z,14.67
2018-12-14T18:23:34.166Z,16.13
2018-12-14T18:26:02.155Z,16.57
2018-12-14T18:28:30.230Z,14.07
2018-12-14T18:30:58.288Z,14.13
2018-12-14T18:33:26.284Z,15.77
2018-12-14T18:35:54.315Z,15.13
2018-12-14T18:38:22.764Z,14.47
2018-12-14T18:40:51.150Z,15.63
2018-12-14T18:43:19.231Z,16.20
2018-12-14T18:45:52.949Z,15.20
2018-12-14T18:48:17.344Z,15.23
2018-12-14T18:50:45.457Z,16.43
2018-12-14T18:53:13.733Z,16.17
2018-12-14T18:55:41.964Z,18.53
2018-12-14T18:58:10.011Z,15.30
2018-12-14T19:00:38.051Z,15.53
2018-12-14T19:03:06.159Z,16.73
2018-12-14T19:05:34.460Z,16.53
2018-12-14T19:08:02.721Z,18.80
2018-12-14T19:10:31.289Z,17.30
2018-12-14T19:12:59.330Z,18.10
2018-12-14T19:15:27.440Z,16.67
2018-12-14T19:17:55.462Z,20.00
2018-12-14T19:20:23.558Z,17.10
2018-12-14T19:22:51.693Z,16.77
2018-12-14T19:25:19.722Z,16.40
2018-12-14T19:27:47.735Z,17.80
2018-12-14T19:30:15.896Z,17.00
2018-12-14T19:32:44.054Z,16.57
2018-12-14T19:35:12.202Z,17.17
2018-12-14T19:37:41.514Z,15.57
2018-12-14T19:40:10.092Z,16.73
2018-12-14T19:42:38.144Z,17.37
2018-12-14T19:45:08.262Z,18.00
2018-12-14T19:47:36.461Z,17.10
2018-12-14T19:50:05.356Z,14.63
2018-12-14T19:52:33.584Z,16.50
2018-12-14T19:55:01.603Z,17.97
2018-12-14T19:57:29.647Z,15.27
2018-12-14T19:59:57.620Z,16.70
2018-12-14T20:02:25.771Z,16.73
2018-12-14T20:04:53.813Z,15.03
2018-12-14T20:07:21.835Z,15.30
2018-12-14T20:09:49.881Z,15.07
2018-12-14T20:12:17.909Z,15.37
2018-12-14T20:14:45.880Z,14.33
2018-12-14T20:17:13.896Z,15.13
2018-12-14T20:19:41.936Z,16.17
2018-12-14T20:22:10.331Z,17.30
2018-12-14T20:24:38.368Z,18.00
2018-12-14T20:27:06.491Z,18.47
2018-12-14T20:29:35.216Z,19.37
2018-12-14T20:32:04.509Z,18.37
2018-12-14T20:34:33.484Z,19.23
2018-12-14T20:37:01.534Z,17.87
2018-12-14T20:39:29.525Z,18.63
2018-12-14T20:41:57.825Z,15.17
2018-12-14T20:44:25.779Z,16.93
2018-12-14T20:46:53.785Z,16.73
2018-12-14T20:49:21.781Z,17.40
2018-12-14T20:51:49.867Z,16.97
2018-12-14T20:54:17.945Z,16.87
2018-12-14T20:56:51.391Z,17.00
2018-12-14T20:59:15.935Z,17.80
2018-12-14T21:01:43.896Z,17.43
2018-12-14T21:04:11.995Z,17.87
2018-12-14T21:06:40.147Z,16.83
2018-12-14T21:09:08.224Z,18.00
2018-12-14T21:11:36.400Z,24.93
2018-12-14T21:14:05.255Z,24.93
2018-12-14T21:16:34.272Z,24.40
2018-12-14T21:19:02.377Z,27.30
2018-12-14T21:21:30.409Z,28.77
2018-12-14T21:23:58.444Z,26.67
2018-12-14T21:26:26.414Z,25.13
2018-12-14T21:28:54.367Z,22.43
2018-12-14T21:31:22.334Z,23.13
2018-12-14T21:33:50.456Z,23.50
2018-12-14T21:36:18.638Z,23.37
2018-12-14T21:38:46.666Z,22.30
2018-12-14T21:41:14.595Z,23.03
2018-12-14T21:43:42.626Z,19.60
2018-12-14T21:46:10.648Z,20.27
2018-12-14T21:48:38.628Z,21.70
2018-12-14T21:51:06.643Z,22.07
2018-12-14T21:53:35.053Z,20.53
2018-12-14T21:56:03.637Z,20.23
2018-12-14T21:58:31.672Z,19.30
2018-12-14T22:00:59.588Z,19.37
2018-12-14T22:03:27.535Z,18.57
2018-12-14T22:05:55.486Z,20.73
2018-12-14T22:08:23.436Z,22.10
2018-12-14T22:10:51.433Z,21.23
2018-12-14T22:13:19.416Z,18.73
2018-12-14T22:15:47.389Z,19.27
2018-12-14T22:18:15.397Z,19.53
2018-12-14T22:20:43.389Z,20.73
2018-12-14T22:23:11.336Z,16.07
2018-12-14T22:25:39.272Z,16.90
2018-12-14T22:28:07.216Z,17.13
2018-12-14T22:30:35.328Z,18.77
2018-12-14T22:35:42.292Z,20.07
2018-12-14T22:38:10.246Z,17.03
2018-12-14T22:40:38.276Z,18.10
2018-12-14T22:43:06.280Z,19.00
2018-12-14T22:48:11.188Z,17.83
2018-12-14T22:50:39.160Z,18.47
2018-12-14T22:53:07.091Z,25.30
2018-12-14T22:55:35.124Z,19.07
2018-12-14T22:58:03.288Z,19.80
2018-12-14T23:00:31.296Z,20.90
2018-12-14T23:02:59.255Z,18.63
2018-12-14T23:05:27.229Z,16.50
2018-12-14T23:07:55.164Z,17.17
2018-12-14T23:10:23.155Z,18.90
2018-12-14T23:12:51.107Z,18.53
2018-12-14T23:15:19.040Z,20.03
2018-12-14T23:17:47.041Z,20.53
2018-12-14T23:20:14.975Z,18.53
2018-12-14T23:22:42.940Z,18.53
2018-12-14T23:25:10.884Z,18.97
2018-12-14T23:27:38.821Z,17.50
2018-12-14T23:30:08.195Z,16.67
2018-12-14T23:32:36.368Z,15.80
2018-12-14T23:35:04.695Z,16.43
2018-12-14T23:37:32.643Z,16.47
2018-12-14T23:40:00.587Z,22.37
2018-12-14T23:42:28.500Z,16.47
2018-12-14T23:44:56.471Z,16.67
2018-12-14T23:47:24.386Z,13.97
2018-12-14T23:49:52.331Z,16.17
2018-12-14T23:52:20.287Z,19.37
2018-12-14T23:54:48.277Z,17.73
2018-12-14T23:57:16.200Z,16.50
2018-12-14T23:59:44.160Z,19.27
